createdAt,value
2018-08-25T00:00:14.489Z,993.41
2018-08-25T00:01:20.451Z,993.43
2018-08-25T00:02:26.874Z,993.34
2018-08-25T00:03:33.306Z,993.37
2018-08-25T00:04:39.737Z,993.24
2018-08-25T00:05:46.165Z,993.24
2018-08-25T00:06:52.617Z,993.17
2018-08-25T00:07:59.050Z,993.18
2018-08-25T00:09:05.491Z,993.19
2018-08-25T00:10:11.917Z,993.19
2018-08-25T00:11:18.847Z,993.19
2018-08-25T00:12:24.790Z,993.24
2018-08-25T00:13:31.232Z,993.23
2018-08-25T00:14:37.644Z,993.21
2018-08-25T00:15:44.081Z,993.20
2018-08-25T00:16:50.520Z,993.20
2018-08-25T00:17:56.958Z,993.18
2018-08-25T00:19:03.387Z,993.17
2018-08-25T00:20:09.830Z,993.13
2018-08-25T00:21:16.246Z,993.14
2018-08-25T00:22:22.677Z,993.12
2018-08-25T00:23:29.107Z,993.10
2018-08-25T00:24:35.540Z,993.09
2018-08-25T00:25:41.964Z,993.09
2018-08-25T00:26:48.392Z,993.10
2018-08-25T00:27:54.826Z,993.09
2018-08-25T00:29:02.282Z,993.11
2018-08-25T00:30:07.686Z,993.03
2018-08-25T00:31:14.117Z,993.03
2018-08-25T00:32:20.570Z,992.99
2018-08-25T00:33:26.991Z,993.04
2018-08-25T00:34:33.398Z,993.00
2018-08-25T00:35:39.835Z,993.01
2018-08-25T00:36:46.255Z,993.04
2018-08-25T00:37:52.698Z,993.03
2018-08-25T00:38:59.118Z,993.02
2018-08-25T00:40:05.555Z,993.03
2018-08-25T00:41:12.989Z,993.05
2018-08-25T00:42:18.438Z,993.08
2018-08-25T00:43:24.857Z,993.04
2018-08-25T00:44:31.279Z,993.03
2018-08-25T00:45:37.719Z,993.03
2018-08-25T00:46:44.334Z,993.03
2018-08-25T00:47:50.655Z,992.97
2018-08-25T00:48:57.012Z,993.01
2018-08-25T00:50:03.427Z,992.95
2018-08-25T00:51:10.852Z,993.00
2018-08-25T00:52:16.283Z,993.03
2018-08-25T00:53:22.707Z,993.01
2018-08-25T00:54:29.123Z,992.95
2018-08-25T00:55:35.554Z,992.96
2018-08-25T00:56:41.975Z,992.95
2018-08-25T00:57:48.406Z,992.89
2018-08-25T00:58:54.829Z,992.87
2018-08-25T01:00:01.245Z,992.85
2018-08-25T01:01:07.679Z,992.80
2018-08-25T01:02:14.101Z,992.82
2018-08-25T01:03:20.548Z,992.78
2018-08-25T01:04:26.951Z,992.85
2018-08-25T01:05:33.372Z,992.85
2018-08-25T01:06:40.796Z,992.88
2018-08-25T01:07:46.225Z,992.82
2018-08-25T01:08:53.140Z,992.83
2018-08-25T01:09:59.065Z,992.85
2018-08-25T01:11:05.482Z,992.86
2018-08-25T01:12:11.894Z,992.88
2018-08-25T01:13:18.823Z,992.87
2018-08-25T01:14:24.731Z,992.84
2018-08-25T01:15:31.158Z,992.80
2018-08-25T01:16:37.585Z,992.82
2018-08-25T01:17:43.996Z,992.82
2018-08-25T01:18:50.428Z,992.88
2018-08-25T01:19:56.842Z,992.82
2018-08-25T01:21:03.256Z,992.80
2018-08-25T01:22:09.690Z,992.78
2018-08-25T01:23:16.119Z,992.79
2018-08-25T01:24:22.528Z,992.71
2018-08-25T01:25:28.962Z,992.70
2018-08-25T01:26:35.379Z,992.68
2018-08-25T01:27:41.814Z,992.67
2018-08-25T01:28:48.245Z,992.62
2018-08-25T01:29:55.164Z,992.63
2018-08-25T01:31:01.103Z,992.61
2018-08-25T01:32:07.532Z,992.60
2018-08-25T01:33:13.961Z,992.59
2018-08-25T01:34:20.387Z,992.60
2018-08-25T01:35:26.818Z,992.60
2018-08-25T01:36:33.242Z,992.61
2018-08-25T01:37:39.668Z,992.59
2018-08-25T01:38:46.113Z,992.56
2018-08-25T01:39:52.665Z,992.53
2018-08-25T01:40:58.951Z,992.55
2018-08-25T01:42:05.375Z,992.55
2018-08-25T01:43:11.828Z,992.55
2018-08-25T01:44:18.251Z,992.57
2018-08-25T01:45:24.667Z,992.53
2018-08-25T01:46:31.597Z,992.53
2018-08-25T01:47:37.527Z,992.55
2018-08-25T01:48:43.965Z,992.53
2018-08-25T01:49:50.394Z,992.53
2018-08-25T01:50:56.832Z,992.56
2018-08-25T01:52:03.248Z,992.55
2018-08-25T01:53:09.678Z,992.58
2018-08-25T01:54:16.116Z,992.57
2018-08-25T01:55:22.553Z,992.57
2018-08-25T01:56:28.981Z,992.56
2018-08-25T01:57:35.409Z,992.57
2018-08-25T01:58:41.853Z,992.52
2018-08-25T01:59:49.285Z,992.48
2018-08-25T02:00:54.715Z,992.47
2018-08-25T02:02:01.155Z,992.45
2018-08-25T02:03:07.583Z,992.43
2018-08-25T02:04:14.031Z,992.43
2018-08-25T02:05:20.655Z,992.39
2018-08-25T02:06:26.904Z,992.38
2018-08-25T02:07:33.328Z,992.38
2018-08-25T02:08:39.779Z,992.38
2018-08-25T02:09:46.216Z,992.38
2018-08-25T02:10:52.649Z,992.38
2018-08-25T02:11:59.089Z,992.37
2018-08-25T02:13:06.016Z,992.34
2018-08-25T02:14:11.959Z,992.38
2018-08-25T02:15:18.396Z,992.40
2018-08-25T02:16:24.828Z,992.33
2018-08-25T02:17:31.770Z,992.32
2018-08-25T02:18:37.715Z,992.36
2018-08-25T02:19:44.156Z,992.35
2018-08-25T02:20:50.594Z,992.34
2018-08-25T02:21:57.031Z,992.34
2018-08-25T02:23:03.476Z,992.32
2018-08-25T02:24:09.916Z,992.28
2018-08-25T02:25:16.346Z,992.29
2018-08-25T02:26:22.783Z,992.26
2018-08-25T02:27:29.219Z,992.32
2018-08-25T02:28:35.667Z,992.29
2018-08-25T02:29:42.097Z,992.29
2018-08-25T02:30:48.531Z,992.22
2018-08-25T02:31:54.971Z,992.20
2018-08-25T02:33:01.394Z,992.25
2018-08-25T02:34:07.833Z,992.24
2018-08-25T02:35:14.256Z,992.20
2018-08-25T02:36:20.696Z,992.20
2018-08-25T02:37:27.120Z,992.26
2018-08-25T02:38:33.565Z,992.27
2018-08-25T02:39:39.985Z,992.28
2018-08-25T02:40:46.396Z,992.30
2018-08-25T02:41:52.820Z,992.26
2018-08-25T02:42:59.253Z,992.25
2018-08-25T02:44:05.674Z,992.27
2018-08-25T02:45:12.085Z,992.26
2018-08-25T02:46:18.501Z,992.31
2018-08-25T02:47:24.925Z,992.37
2018-08-25T02:48:31.343Z,992.34
2018-08-25T02:49:37.761Z,992.36
2018-08-25T02:50:44.176Z,992.36
2018-08-25T02:51:50.589Z,992.35
2018-08-25T02:52:57.009Z,992.34
2018-08-25T02:54:03.430Z,992.38
2018-08-25T02:55:09.848Z,992.36
2018-08-25T02:56:16.261Z,992.37
2018-08-25T02:57:22.698Z,992.39
2018-08-25T02:58:29.112Z,992.36
2018-08-25T02:59:35.530Z,992.36
2018-08-25T03:00:41.954Z,992.32
2018-08-25T03:01:49.364Z,992.33
2018-08-25T03:02:55.294Z,992.29
2018-08-25T03:04:01.214Z,992.37
2018-08-25T03:05:07.616Z,992.39
2018-08-25T03:06:14.037Z,992.39
2018-08-25T03:07:20.452Z,992.37
2018-08-25T03:08:26.856Z,992.35
2018-08-25T03:09:33.283Z,992.28
2018-08-25T03:10:39.689Z,992.22
2018-08-25T03:11:46.100Z,992.23
2018-08-25T03:12:53.012Z,992.13
2018-08-25T03:13:58.915Z,992.13
2018-08-25T03:15:05.338Z,992.13
2018-08-25T03:16:11.755Z,992.07
2018-08-25T03:17:18.132Z,992.10
2018-08-25T03:18:25.018Z,992.10
2018-08-25T03:19:30.943Z,992.09
2018-08-25T03:20:37.339Z,992.08
2018-08-25T03:21:43.735Z,992.06
2018-08-25T03:22:50.137Z,992.05
2018-08-25T03:23:56.555Z,992.06
2018-08-25T03:25:02.967Z,992.04
2018-08-25T03:26:09.363Z,992.05
2018-08-25T03:27:16.256Z,992.08
2018-08-25T03:28:22.174Z,992.06
2018-08-25T03:29:28.583Z,992.07
2018-08-25T03:30:34.991Z,992.07
2018-08-25T03:31:41.396Z,992.06
2018-08-25T03:32:48.306Z,992.02
2018-08-25T03:33:54.232Z,992.04
2018-08-25T03:35:00.643Z,991.97
2018-08-25T03:36:07.048Z,991.91
2018-08-25T03:37:13.471Z,991.89
2018-08-25T03:38:19.873Z,991.90
2018-08-25T03:39:26.294Z,991.88
2018-08-25T03:40:32.699Z,991.84
2018-08-25T03:41:39.104Z,991.85
2018-08-25T03:42:45.526Z,991.82
2018-08-25T03:43:51.928Z,991.85
2018-08-25T03:44:58.344Z,991.89
2018-08-25T03:46:04.744Z,991.93
2018-08-25T03:47:11.146Z,991.94
2018-08-25T03:48:17.546Z,991.98
2018-08-25T03:49:23.950Z,991.98
2018-08-25T03:50:30.361Z,991.95
2018-08-25T03:51:36.766Z,991.92
2018-08-25T03:52:43.185Z,991.91
2018-08-25T03:53:49.574Z,991.86
2018-08-25T03:54:55.981Z,991.86
2018-08-25T03:56:03.852Z,991.88
2018-08-25T03:57:08.767Z,991.86
2018-08-25T03:58:15.264Z,991.89
2018-08-25T03:59:21.564Z,991.86
2018-08-25T04:00:27.971Z,991.84
2018-08-25T04:01:34.410Z,991.83
2018-08-25T04:02:41.264Z,991.85
2018-08-25T04:03:47.143Z,991.86
2018-08-25T04:04:53.541Z,991.87
2018-08-25T04:05:59.925Z,991.84
2018-08-25T04:07:06.308Z,991.85
2018-08-25T04:08:12.711Z,991.88
2018-08-25T04:09:19.097Z,991.86
2018-08-25T04:10:25.488Z,991.85
2018-08-25T04:11:31.869Z,991.87
2018-08-25T04:12:38.248Z,991.83
2018-08-25T04:13:44.635Z,991.87
2018-08-25T04:14:51.085Z,991.83
2018-08-25T04:15:57.590Z,991.80
2018-08-25T04:17:03.785Z,991.80
2018-08-25T04:18:10.172Z,991.83
2018-08-25T04:19:16.547Z,991.83
2018-08-25T04:20:22.940Z,991.84
2018-08-25T04:21:29.309Z,991.85
2018-08-25T04:22:36.182Z,991.85
2018-08-25T04:23:42.071Z,991.88
2018-08-25T04:24:48.440Z,991.85
2018-08-25T04:25:54.829Z,991.87
2018-08-25T04:27:01.203Z,991.84
2018-08-25T04:28:07.572Z,991.85
2018-08-25T04:29:13.950Z,991.84
2018-08-25T04:30:20.337Z,991.83
2018-08-25T04:31:26.712Z,991.81
2018-08-25T04:32:33.097Z,991.79
2018-08-25T04:33:39.474Z,991.80
2018-08-25T04:34:46.840Z,991.76
2018-08-25T04:35:52.241Z,991.74
2018-08-25T04:36:58.603Z,991.76
2018-08-25T04:38:05.477Z,991.77
2018-08-25T04:39:11.374Z,991.76
2018-08-25T04:40:17.761Z,991.75
2018-08-25T04:41:24.371Z,991.73
2018-08-25T04:42:30.507Z,991.74
2018-08-25T04:43:36.891Z,991.77
2018-08-25T04:44:43.277Z,991.79
2018-08-25T04:45:49.668Z,991.77
2018-08-25T04:46:56.052Z,991.74
2018-08-25T04:48:02.428Z,991.69
2018-08-25T04:49:08.812Z,991.70
2018-08-25T04:50:15.704Z,991.67
2018-08-25T04:51:21.592Z,991.71
2018-08-25T04:52:27.992Z,991.68
2018-08-25T04:53:34.355Z,991.74
2018-08-25T04:54:40.739Z,991.71
2018-08-25T04:55:47.136Z,991.70
2018-08-25T04:56:53.507Z,991.71
2018-08-25T04:57:59.903Z,991.72
2018-08-25T04:59:06.281Z,991.77
2018-08-25T05:00:12.677Z,991.78
2018-08-25T05:01:19.069Z,991.80
2018-08-25T05:02:26.449Z,991.75
2018-08-25T05:03:31.839Z,991.75
2018-08-25T05:04:38.216Z,991.70
2018-08-25T05:05:44.606Z,991.70
2018-08-25T05:06:50.990Z,991.69
2018-08-25T05:07:57.373Z,991.68
2018-08-25T05:09:03.769Z,991.69
2018-08-25T05:10:10.141Z,991.66
2018-08-25T05:11:16.548Z,991.67
2018-08-25T05:12:23.414Z,991.66
2018-08-25T05:13:29.300Z,991.68
2018-08-25T05:14:35.689Z,991.67
2018-08-25T05:15:42.089Z,991.69
2018-08-25T05:16:48.485Z,991.76
2018-08-25T05:17:54.857Z,991.78
2018-08-25T05:19:01.239Z,991.81
2018-08-25T05:20:07.654Z,991.82
2018-08-25T05:21:14.035Z,991.82
2018-08-25T05:22:21.402Z,991.86
2018-08-25T05:23:26.806Z,991.88
2018-08-25T05:24:33.199Z,991.87
2018-08-25T05:25:39.607Z,991.86
2018-08-25T05:26:45.980Z,991.89
2018-08-25T05:27:52.376Z,991.91
2018-08-25T05:28:58.770Z,991.97
2018-08-25T05:30:05.273Z,991.95
2018-08-25T05:31:11.547Z,991.93
2018-08-25T05:32:17.939Z,991.91
2018-08-25T05:33:24.318Z,991.91
2018-08-25T05:34:30.699Z,991.87
2018-08-25T05:35:37.093Z,991.91
2018-08-25T05:36:43.469Z,991.87
2018-08-25T05:37:49.856Z,991.89
2018-08-25T05:38:56.255Z,991.84
2018-08-25T05:40:02.635Z,991.86
2018-08-25T05:41:09.034Z,991.84
2018-08-25T05:42:15.408Z,991.88
2018-08-25T05:43:22.809Z,991.81
2018-08-25T05:44:28.192Z,991.79
2018-08-25T05:45:34.595Z,991.84
2018-08-25T05:46:40.965Z,991.86
2018-08-25T05:47:47.373Z,991.80
2018-08-25T05:48:53.740Z,991.82
2018-08-25T05:50:00.136Z,991.80
2018-08-25T05:51:06.533Z,991.88
2018-08-25T05:52:12.919Z,991.83
2018-08-25T05:53:19.315Z,991.89
2018-08-25T05:54:25.703Z,991.86
2018-08-25T05:55:32.095Z,991.90
2018-08-25T05:56:38.496Z,991.83
2018-08-25T05:57:44.951Z,991.84
2018-08-25T05:58:51.293Z,991.84
2018-08-25T05:59:57.683Z,991.91
2018-08-25T06:01:04.068Z,991.89
2018-08-25T06:02:10.455Z,991.87
2018-08-25T06:03:17.853Z,991.84
2018-08-25T06:04:23.239Z,991.85
2018-08-25T06:05:30.142Z,991.85
2018-08-25T06:06:36.080Z,991.86
2018-08-25T06:07:42.392Z,991.83
2018-08-25T06:08:48.789Z,991.90
2018-08-25T06:09:55.270Z,991.94
2018-08-25T06:11:01.545Z,991.92
2018-08-25T06:12:07.904Z,991.97
2018-08-25T06:13:14.294Z,991.94
2018-08-25T06:14:20.676Z,991.93
2018-08-25T06:15:27.030Z,991.91
2018-08-25T06:16:33.416Z,991.97
2018-08-25T06:17:39.825Z,991.93
2018-08-25T06:18:46.140Z,991.90
2018-08-25T06:19:52.511Z,991.93
2018-08-25T06:20:58.883Z,991.90
2018-08-25T06:22:05.253Z,991.96
2018-08-25T06:23:11.623Z,991.94
2018-08-25T06:24:17.984Z,991.92
2018-08-25T06:25:24.353Z,991.99
2018-08-25T06:26:30.723Z,992.01
2018-08-25T06:27:37.608Z,992.02
2018-08-25T06:28:43.457Z,992.01
2018-08-25T06:29:50.851Z,992.06
2018-08-25T06:30:56.196Z,992.04
2018-08-25T06:32:02.563Z,992.08
2018-08-25T06:33:08.929Z,992.06
2018-08-25T06:34:15.288Z,992.09
2018-08-25T06:35:21.659Z,992.05
2018-08-25T06:36:28.016Z,992.07
2018-08-25T06:37:34.367Z,992.08
2018-08-25T06:38:40.735Z,992.07
2018-08-25T06:39:47.094Z,992.06
2018-08-25T06:40:53.956Z,992.12
2018-08-25T06:41:59.830Z,992.10
2018-08-25T06:43:06.188Z,992.10
2018-08-25T06:44:12.556Z,992.11
2018-08-25T06:45:18.926Z,992.13
2018-08-25T06:46:25.292Z,992.15
2018-08-25T06:47:31.661Z,992.13
2018-08-25T06:48:38.020Z,992.17
2018-08-25T06:49:44.423Z,992.22
2018-08-25T06:50:51.285Z,992.24
2018-08-25T06:51:57.109Z,992.24
2018-08-25T06:53:03.465Z,992.25
2018-08-25T06:54:09.818Z,992.25
2018-08-25T06:55:16.196Z,992.27
2018-08-25T06:56:22.551Z,992.30
2018-08-25T06:57:28.891Z,992.29
2018-08-25T06:58:35.268Z,992.29
2018-08-25T06:59:43.093Z,992.32
2018-08-25T07:00:47.952Z,992.38
2018-08-25T07:01:54.317Z,992.35
2018-08-25T07:03:01.667Z,992.40
2018-08-25T07:04:08.507Z,992.34
2018-08-25T07:05:13.377Z,992.45
2018-08-25T07:06:19.728Z,992.43
2018-08-25T07:07:26.095Z,992.44
2018-08-25T07:08:33.917Z,992.45
2018-08-25T07:09:38.776Z,992.45
2018-08-25T07:10:45.134Z,992.48
2018-08-25T07:11:51.490Z,992.49
2018-08-25T07:12:57.891Z,992.46
2018-08-25T07:14:04.190Z,992.49
2018-08-25T07:15:10.538Z,992.50
2018-08-25T07:16:16.903Z,992.51
2018-08-25T07:17:23.238Z,992.46
2018-08-25T07:18:29.585Z,992.45
2018-08-25T07:19:35.932Z,992.43
2018-08-25T07:20:42.299Z,992.42
2018-08-25T07:21:48.640Z,992.43
2018-08-25T07:22:54.989Z,992.41
2018-08-25T07:24:01.329Z,992.42
2018-08-25T07:25:07.688Z,992.43
2018-08-25T07:26:14.162Z,992.42
2018-08-25T07:27:20.401Z,992.40
2018-08-25T07:28:26.749Z,992.48
2018-08-25T07:29:33.138Z,992.47
2018-08-25T07:30:39.467Z,992.46
2018-08-25T07:31:45.838Z,992.49
2018-08-25T07:32:52.183Z,992.52
2018-08-25T07:33:58.556Z,992.50
2018-08-25T07:35:04.909Z,992.56
2018-08-25T07:36:11.282Z,992.56
2018-08-25T07:37:17.666Z,992.54
2018-08-25T07:38:24.312Z,992.55
2018-08-25T07:39:30.393Z,992.47
2018-08-25T07:40:36.765Z,992.46
2018-08-25T07:41:43.148Z,992.40
2018-08-25T07:42:49.528Z,992.41
2018-08-25T07:43:56.045Z,992.49
2018-08-25T07:45:02.294Z,992.45
2018-08-25T07:46:09.270Z,992.51
2018-08-25T07:47:15.564Z,992.46
2018-08-25T07:48:21.467Z,992.47
2018-08-25T07:49:27.880Z,992.56
2018-08-25T07:50:34.261Z,992.55
2018-08-25T07:51:40.677Z,992.51
2018-08-25T07:52:47.072Z,992.50
2018-08-25T07:53:53.461Z,992.52
2018-08-25T07:55:00.362Z,992.53
2018-08-25T07:56:06.291Z,992.51
2018-08-25T07:57:12.707Z,992.46
2018-08-25T07:58:19.132Z,992.52
2018-08-25T07:59:25.561Z,992.57
2018-08-25T08:00:31.977Z,992.50
2018-08-25T08:01:38.435Z,992.49
2018-08-25T08:02:44.856Z,992.51
2018-08-25T08:03:51.295Z,992.52
2018-08-25T08:04:58.052Z,992.51
2018-08-25T08:06:05.188Z,992.49
2018-08-25T08:07:10.642Z,992.50
2018-08-25T08:08:17.092Z,992.54
2018-08-25T08:09:23.548Z,992.53
2018-08-25T08:10:30.006Z,992.52
2018-08-25T08:11:36.522Z,992.55
2018-08-25T08:12:42.925Z,992.53
2018-08-25T08:13:49.380Z,992.54
2018-08-25T08:14:55.840Z,992.59
2018-08-25T08:16:02.329Z,992.56
2018-08-25T08:17:08.751Z,992.58
2018-08-25T08:18:15.217Z,992.59
2018-08-25T08:19:21.666Z,992.62
2018-08-25T08:20:28.123Z,992.61
2018-08-25T08:21:34.578Z,992.59
2018-08-25T08:22:42.040Z,992.62
2018-08-25T08:23:47.500Z,992.62
2018-08-25T08:24:53.972Z,992.61
2018-08-25T08:26:00.463Z,992.56
2018-08-25T08:27:06.974Z,992.59
2018-08-25T08:28:13.416Z,992.59
2018-08-25T08:29:19.912Z,992.59
2018-08-25T08:30:26.399Z,992.60
2018-08-25T08:31:32.910Z,992.57
2018-08-25T08:32:39.414Z,992.57
2018-08-25T08:33:45.917Z,992.63
2018-08-25T08:34:52.398Z,992.65
2018-08-25T08:35:58.890Z,992.68
2018-08-25T08:37:05.384Z,992.67
2018-08-25T08:38:11.867Z,992.70
2018-08-25T08:39:18.406Z,992.73
2018-08-25T08:40:24.838Z,992.76
2018-08-25T08:41:31.349Z,992.75
2018-08-25T08:42:37.831Z,992.71
2018-08-25T08:43:44.394Z,992.75
2018-08-25T08:44:50.829Z,992.71
2018-08-25T08:45:57.333Z,992.67
2018-08-25T08:47:03.846Z,992.73
2018-08-25T08:48:10.379Z,992.79
2018-08-25T08:49:16.882Z,992.82
2018-08-25T08:50:23.435Z,992.80
2018-08-25T08:51:29.922Z,992.77
2018-08-25T08:52:36.490Z,992.74
2018-08-25T08:53:42.946Z,992.74
2018-08-25T08:54:49.456Z,992.80
2018-08-25T08:55:55.964Z,992.84
2018-08-25T08:57:02.483Z,992.87
2018-08-25T08:58:09.054Z,992.89
2018-08-25T08:59:15.521Z,992.93
2018-08-25T09:00:22.035Z,992.84
2018-08-25T09:01:28.560Z,992.84
2018-08-25T09:02:35.074Z,992.83
2018-08-25T09:03:41.611Z,992.85
2018-08-25T09:04:48.099Z,992.87
2018-08-25T09:05:54.600Z,992.87
2018-08-25T09:07:01.624Z,992.92
2018-08-25T09:08:07.628Z,992.85
2018-08-25T09:09:14.133Z,992.89
2018-08-25T09:10:20.634Z,992.92
2018-08-25T09:11:27.185Z,992.96
2018-08-25T09:12:33.674Z,992.97
2018-08-25T09:13:40.663Z,992.91
2018-08-25T09:14:47.669Z,992.88
2018-08-25T09:15:53.187Z,992.92
2018-08-25T09:16:59.705Z,992.86
2018-08-25T09:18:06.267Z,992.83
2018-08-25T09:19:12.844Z,992.88
2018-08-25T09:20:19.291Z,992.92
2018-08-25T09:21:25.810Z,992.89
2018-08-25T09:22:32.355Z,992.92
2018-08-25T09:23:38.882Z,992.93
2018-08-25T09:24:46.436Z,992.87
2018-08-25T09:25:51.990Z,992.84
2018-08-25T09:26:58.496Z,992.88
2018-08-25T09:28:05.038Z,992.97
2018-08-25T09:29:12.065Z,992.99
2018-08-25T09:30:18.117Z,992.93
2018-08-25T09:31:24.628Z,992.98
2018-08-25T09:32:31.279Z,992.90
2018-08-25T09:33:38.191Z,992.93
2018-08-25T09:34:44.210Z,992.93
2018-08-25T09:35:50.873Z,992.94
2018-08-25T09:36:57.447Z,992.88
2018-08-25T09:38:03.796Z,992.89
2018-08-25T09:39:10.298Z,992.84
2018-08-25T09:40:17.822Z,992.87
2018-08-25T09:41:23.342Z,992.86
2018-08-25T09:42:29.877Z,992.85
2018-08-25T09:43:36.400Z,992.89
2018-08-25T09:44:42.930Z,992.85
2018-08-25T09:45:49.503Z,992.85
2018-08-25T09:46:56.081Z,992.90
2018-08-25T09:48:02.582Z,992.85
2018-08-25T09:49:09.284Z,992.95
2018-08-25T09:50:15.700Z,992.86
2018-08-25T09:51:22.258Z,992.88
2018-08-25T09:52:28.822Z,992.87
2018-08-25T09:53:35.458Z,992.84
2018-08-25T09:54:41.928Z,992.89
2018-08-25T09:55:48.480Z,992.91
2018-08-25T09:56:55.026Z,992.91
2018-08-25T09:58:01.600Z,992.92
2018-08-25T09:59:08.212Z,992.95
2018-08-25T10:00:14.719Z,992.92
2018-08-25T10:01:21.284Z,992.91
2018-08-25T10:02:28.345Z,992.95
2018-08-25T10:03:34.426Z,992.88
2018-08-25T10:04:40.988Z,992.86
2018-08-25T10:05:47.574Z,992.80
2018-08-25T10:06:54.137Z,992.82
2018-08-25T10:08:01.269Z,992.85
2018-08-25T10:09:07.294Z,992.85
2018-08-25T10:10:13.863Z,992.88
2018-08-25T10:11:20.419Z,992.87
2018-08-25T10:12:26.992Z,992.91
2018-08-25T10:13:33.573Z,992.82
2018-08-25T10:14:40.135Z,992.84
2018-08-25T10:15:46.714Z,992.79
2018-08-25T10:16:53.439Z,992.77
2018-08-25T10:18:00.899Z,992.81
2018-08-25T10:19:06.501Z,992.88
2018-08-25T10:20:13.109Z,992.80
2018-08-25T10:21:19.716Z,992.85
2018-08-25T10:22:26.352Z,992.81
2018-08-25T10:23:33.007Z,992.83
2018-08-25T10:24:39.614Z,992.86
2018-08-25T10:25:46.278Z,992.76
2018-08-25T10:26:52.898Z,992.75
2018-08-25T10:27:59.561Z,992.79
2018-08-25T10:29:06.311Z,992.68
2018-08-25T10:30:12.889Z,992.72
2018-08-25T10:31:19.554Z,992.74
2018-08-25T10:32:26.205Z,992.77
2018-08-25T10:33:32.858Z,992.80
2018-08-25T10:34:39.497Z,992.76
2018-08-25T10:35:46.212Z,992.79
2018-08-25T10:36:52.799Z,992.79
2018-08-25T10:37:59.437Z,992.85
2018-08-25T10:39:06.081Z,992.81
2018-08-25T10:40:12.701Z,992.80
2018-08-25T10:41:19.338Z,992.84
2018-08-25T10:42:25.976Z,992.81
2018-08-25T10:43:32.622Z,992.77
2018-08-25T10:44:39.253Z,992.81
2018-08-25T10:45:45.888Z,992.80
2018-08-25T10:46:52.547Z,992.79
2018-08-25T10:47:59.216Z,992.83
2018-08-25T10:49:06.344Z,992.74
2018-08-25T10:50:12.968Z,992.73
2018-08-25T10:51:19.108Z,992.66
2018-08-25T10:52:25.753Z,992.70
2018-08-25T10:53:32.411Z,992.76
2018-08-25T10:54:39.049Z,992.68
2018-08-25T10:55:45.721Z,992.74
2018-08-25T10:56:52.379Z,992.75
2018-08-25T10:57:59.044Z,992.81
2018-08-25T10:59:05.743Z,992.78
2018-08-25T11:00:12.997Z,992.78
2018-08-25T11:01:19.231Z,992.78
2018-08-25T11:02:25.849Z,992.79
2018-08-25T11:03:32.556Z,992.79
2018-08-25T11:04:40.239Z,992.85
2018-08-25T11:05:45.926Z,992.89
2018-08-25T11:06:52.653Z,992.87
2018-08-25T11:07:59.352Z,992.84
2018-08-25T11:09:06.083Z,992.77
2018-08-25T11:10:12.786Z,992.82
2018-08-25T11:11:19.444Z,992.83
2018-08-25T11:12:26.122Z,992.82
2018-08-25T11:13:32.809Z,992.90
2018-08-25T11:14:39.494Z,992.89
2018-08-25T11:15:46.179Z,992.81
2018-08-25T11:16:52.865Z,992.93
2018-08-25T11:17:59.542Z,992.93
2018-08-25T11:19:06.231Z,992.88
2018-08-25T11:20:12.930Z,992.80
2018-08-25T11:21:19.636Z,992.89
2018-08-25T11:22:26.394Z,992.84
2018-08-25T11:23:33.279Z,992.87
2018-08-25T11:24:40.087Z,992.86
2018-08-25T11:25:47.482Z,992.85
2018-08-25T11:26:53.915Z,992.78
2018-08-25T11:28:00.871Z,992.76
2018-08-25T11:29:07.905Z,992.74
2018-08-25T11:30:14.887Z,992.71
2018-08-25T11:31:21.901Z,992.67
2018-08-25T11:32:28.872Z,992.81
2018-08-25T11:33:35.835Z,992.78
2018-08-25T11:35:49.742Z,992.68
2018-08-25T11:36:56.626Z,992.77
2018-08-25T11:38:03.546Z,992.70
2018-08-25T11:39:10.358Z,992.76
2018-08-25T11:40:17.208Z,992.76
2018-08-25T11:41:23.965Z,992.86
2018-08-25T11:42:30.917Z,992.80
2018-08-25T11:43:37.515Z,992.82
2018-08-25T11:44:44.258Z,992.79
2018-08-25T11:45:51.456Z,992.82
2018-08-25T11:46:57.699Z,992.81
2018-08-25T11:48:04.386Z,992.82
2018-08-25T11:49:11.100Z,992.76
2018-08-25T11:50:17.782Z,992.85
2018-08-25T11:51:24.496Z,992.79
2018-08-25T11:52:31.272Z,992.77
2018-08-25T11:53:38.691Z,992.74
2018-08-25T11:54:45.016Z,992.75
2018-08-25T11:55:51.969Z,992.73
2018-08-25T11:56:59.060Z,992.72
2018-08-25T11:58:05.853Z,992.71
2018-08-25T11:59:12.795Z,992.73
2018-08-25T12:00:19.758Z,992.77
2018-08-25T12:01:26.761Z,992.75
2018-08-25T12:02:33.798Z,992.74
2018-08-25T12:03:40.885Z,992.76
2018-08-25T12:04:48.002Z,992.66
2018-08-25T12:05:55.092Z,992.59
2018-08-25T12:07:02.152Z,992.69
2018-08-25T12:08:10.279Z,992.74
2018-08-25T12:09:16.292Z,992.68
2018-08-25T12:10:23.155Z,992.66
2018-08-25T12:11:30.151Z,992.66
2018-08-25T12:12:37.171Z,992.59
2018-08-25T12:13:44.243Z,992.55
2018-08-25T12:14:51.298Z,992.69
2018-08-25T12:15:58.317Z,992.68
2018-08-25T12:17:05.329Z,992.70
2018-08-25T12:18:12.273Z,992.62
2018-08-25T12:19:19.209Z,992.69
2018-08-25T12:20:26.124Z,992.64
2018-08-25T12:21:33.048Z,992.68
2018-08-25T12:22:40.006Z,992.70
2018-08-25T12:23:46.988Z,992.72
2018-08-25T12:24:53.959Z,992.72
2018-08-25T12:26:00.892Z,992.70
2018-08-25T12:27:07.803Z,992.66
2018-08-25T12:28:14.713Z,992.63
2018-08-25T12:29:21.589Z,992.64
2018-08-25T12:30:28.489Z,992.68
2018-08-25T12:31:35.334Z,992.71
2018-08-25T12:32:42.373Z,992.69
2018-08-25T12:33:49.065Z,992.73
2018-08-25T12:34:55.964Z,992.70
2018-08-25T12:36:02.707Z,992.71
2018-08-25T12:37:09.577Z,992.78
2018-08-25T12:38:16.374Z,992.75
2018-08-25T12:39:23.806Z,992.71
2018-08-25T12:40:30.212Z,992.72
2018-08-25T12:41:37.329Z,992.78
2018-08-25T12:42:43.606Z,992.77
2018-08-25T12:43:50.421Z,992.79
2018-08-25T12:44:57.448Z,992.75
2018-08-25T12:46:04.047Z,992.74
2018-08-25T12:47:10.886Z,992.85
2018-08-25T12:48:17.737Z,992.85
2018-08-25T12:49:24.683Z,992.73
2018-08-25T12:50:31.614Z,992.80
2018-08-25T12:51:38.660Z,992.84
2018-08-25T12:52:45.628Z,992.80
2018-08-25T12:53:52.792Z,992.77
2018-08-25T12:54:59.719Z,992.81
2018-08-25T12:56:06.758Z,992.80
2018-08-25T12:57:13.789Z,992.78
2018-08-25T12:58:20.826Z,992.76
2018-08-25T12:59:27.868Z,992.78
2018-08-25T13:00:34.907Z,992.68
2018-08-25T13:01:41.933Z,992.79
2018-08-25T13:02:48.907Z,992.79
2018-08-25T13:03:55.860Z,992.66
2018-08-25T13:05:02.816Z,992.76
2018-08-25T13:06:09.716Z,992.82
2018-08-25T13:07:16.650Z,992.79
2018-08-25T13:08:23.511Z,992.75
2018-08-25T13:09:30.393Z,992.92
2018-08-25T13:10:37.274Z,992.79
2018-08-25T13:11:44.135Z,992.83
2018-08-25T13:12:51.018Z,992.83
2018-08-25T13:13:57.849Z,992.77
2018-08-25T13:15:04.684Z,992.89
2018-08-25T13:16:12.523Z,992.79
2018-08-25T13:17:18.352Z,992.86
2018-08-25T13:18:25.280Z,992.80
2018-08-25T13:19:32.027Z,992.80
2018-08-25T13:20:38.855Z,992.85
2018-08-25T13:21:45.720Z,992.90
2018-08-25T13:22:52.528Z,992.92
2018-08-25T13:23:59.415Z,992.92
2018-08-25T13:25:06.326Z,992.95
2018-08-25T13:26:13.451Z,992.90
2018-08-25T13:27:19.799Z,992.84
2018-08-25T13:28:26.691Z,992.89
2018-08-25T13:29:33.438Z,992.93
2018-08-25T13:30:40.290Z,992.97
2018-08-25T13:31:47.085Z,992.98
2018-08-25T13:32:53.912Z,992.93
2018-08-25T13:34:00.941Z,992.98
2018-08-25T13:35:07.610Z,992.95
2018-08-25T13:36:14.500Z,992.88
2018-08-25T13:37:21.402Z,992.89
2018-08-25T13:38:28.304Z,992.84
2018-08-25T13:39:35.208Z,992.91
2018-08-25T13:40:42.135Z,992.91
2018-08-25T13:41:49.568Z,992.90
2018-08-25T13:42:56.008Z,992.87
2018-08-25T13:44:03.005Z,992.99
2018-08-25T13:45:09.912Z,992.96
2018-08-25T13:46:16.867Z,992.96
2018-08-25T13:47:23.790Z,993.03
2018-08-25T13:48:30.726Z,993.00
2018-08-25T13:49:37.671Z,993.03
2018-08-25T13:50:44.601Z,992.99